Time;durP1;ratioP1;P1;durP2;ratioP2;P2;SDS_P1;SDS_P2;PMS_P1;PMS_P2;Temp;Humidity;BMP_temperature;BMP_pressure;BME280_temperature;BME280_humidity;BME280_pressure;Samples;Min_cycle;Max_cycle;Signal;HPM_P1;HPM_P2
2020/12/13 00:01:50;;;;;;;4.87;3.57;;;;;;;9.51;100.00;97086.53;5050590;28;20733;-77
2020/12/13 00:04:17;;;;;;;5.60;3.80;;;;;;;9.53;100.00;97088.94;5051306;28;20292;-77
2020/12/13 00:06:44;;;;;;;6.17;4.07;;;;;;;9.51;100.00;97094.50;5052010;28;20810;-78
2020/12/13 00:09:11;;;;;;;5.70;3.90;;;;;;;9.38;100.00;97093.78;5046006;28;20613;-78
2020/12/13 00:11:39;;;;;;;5.00;4.03;;;;;;;9.46;100.00;97099.66;5048554;28;21284;-78
2020/12/13 00:14:05;;;;;;;6.47;3.90;;;;;;;9.49;100.00;97101.09;5051341;28;20241;-76
2020/12/13 00:16:32;;;;;;;5.57;3.97;;;;;;;9.52;100.00;97103.28;5050860;28;20198;-78
2020/12/13 00:18:59;;;;;;;6.40;4.30;;;;;;;9.49;100.00;97093.88;5051457;28;20216;-77
2020/12/13 00:21:26;;;;;;;5.33;4.03;;;;;;;9.56;100.00;97096.50;5051504;28;20237;-78
2020/12/13 00:23:54;;;;;;;6.87;3.80;;;;;;;9.41;100.00;97104.81;5050293;28;20210;-79
2020/12/13 00:26:21;;;;;;;7.37;3.97;;;;;;;9.59;100.00;97110.22;5050267;28;20232;-78
2020/12/13 00:28:49;;;;;;;6.77;3.73;;;;;;;9.52;100.00;97111.28;5051698;28;20304;-78
2020/12/13 00:31:16;;;;;;;7.87;3.67;;;;;;;9.57;100.00;97106.97;5046915;28;20232;-77
2020/12/13 00:33:43;;;;;;;5.77;3.17;;;;;;;9.50;100.00;97116.03;5049822;28;20201;-78
2020/12/13 00:36:10;;;;;;;5.07;3.47;;;;;;;9.40;100.00;97115.69;5048831;28;20564;-77
2020/12/13 00:38:37;;;;;;;4.40;3.20;;;;;;;9.41;100.00;97118.13;5051370;28;20198;-78
2020/12/13 00:41:04;;;;;;;6.10;3.53;;;;;;;9.19;100.00;97124.00;5051280;28;20313;-78
2020/12/13 00:43:31;;;;;;;5.17;3.20;;;;;;;9.27;100.00;97116.59;5054112;28;20213;-78
2020/12/13 00:46:00;;;;;;;5.67;2.87;;;;;;;9.21;100.00;97128.09;5052590;28;20292;-77
2020/12/13 00:48:26;;;;;;;5.47;3.47;;;;;;;9.38;100.00;97120.41;5049459;28;20292;-78
2020/12/13 00:50:53;;;;;;;4.80;3.13;;;;;;;9.29;100.00;97122.50;5049786;28;20228;-76
2020/12/13 00:53:20;;;;;;;5.30;3.20;;;;;;;9.45;100.00;97119.34;5050933;28;20205;-76
2020/12/13 00:55:47;;;;;;;4.80;3.10;;;;;;;9.40;100.00;97129.00;5050015;28;20208;-76
2020/12/13 00:58:14;;;;;;;5.57;3.40;;;;;;;9.40;100.00;97129.81;5050938;28;20198;-75
2020/12/13 01:00:41;;;;;;;4.27;2.93;;;;;;;9.33;100.00;97131.69;5048413;28;20218;-76
2020/12/13 01:03:08;;;;;;;5.20;3.40;;;;;;;8.89;100.00;97144.22;5049892;28;20207;-76
2020/12/13 01:05:35;;;;;;;5.07;3.20;;;;;;;9.01;100.00;97150.50;5049248;28;20205;-75
2020/12/13 01:08:02;;;;;;;4.87;3.20;;;;;;;9.31;100.00;97148.91;5048533;28;20206;-77
2020/12/13 01:10:29;;;;;;;3.80;2.70;;;;;;;9.23;100.00;97149.97;5048445;28;20233;-78
2020/12/13 01:12:56;;;;;;;4.63;2.97;;;;;;;9.34;100.00;97149.28;5049029;28;20202;-78
2020/12/13 01:15:22;;;;;;;4.17;2.83;;;;;;;9.25;100.00;97158.59;5048549;28;20220;-78
2020/12/13 01:17:50;;;;;;;6.87;3.07;;;;;;;9.45;100.00;97148.63;5049201;28;20221;-78
2020/12/13 01:20:18;;;;;;;4.07;3.37;;;;;;;9.36;100.00;97165.06;5046867;28;20771;-77
2020/12/13 01:22:44;;;;;;;5.17;3.10;;;;;;;9.38;100.00;97158.50;5046411;28;20190;-77
2020/12/13 01:25:12;;;;;;;4.37;3.17;;;;;;;9.33;100.00;97162.84;5055689;28;20201;-77
2020/12/13 01:27:39;;;;;;;4.80;3.40;;;;;;;9.31;100.00;97173.69;5053917;28;20216;-78
2020/12/13 01:30:07;;;;;;;5.00;2.47;;;;;;;9.34;100.00;97167.94;5046769;28;20222;-77
2020/12/13 01:32:37;;;;;;;5.03;2.90;;;;;;;9.36;100.00;97171.22;5049829;28;20827;-76
2020/12/13 01:35:05;;;;;;;4.77;2.97;;;;;;;9.11;100.00;97172.16;5048044;28;20194;-78
2020/12/13 01:37:33;;;;;;;8.27;3.07;;;;;;;9.35;100.00;97169.59;5050603;28;20670;-76
2020/12/13 01:40:00;;;;;;;4.57;3.27;;;;;;;9.25;100.00;97176.38;5046986;28;20689;-76
2020/12/13 01:42:27;;;;;;;3.73;2.60;;;;;;;9.26;100.00;97175.34;5049879;28;20649;-78
2020/12/13 01:44:54;;;;;;;6.00;3.10;;;;;;;9.30;100.00;97187.22;5050348;28;20205;-77
2020/12/13 01:47:21;;;;;;;4.10;3.13;;;;;;;9.13;100.00;97186.88;5050235;28;20202;-77
2020/12/13 01:49:49;;;;;;;3.83;2.77;;;;;;;9.33;100.00;97192.13;5049263;28;20330;-78
2020/12/13 01:55:05;;;;;;;3.70;2.80;;;;;;;9.18;100.00;97194.25;5051763;28;20204;-76
2020/12/13 01:57:35;;;;;;;5.90;2.93;;;;;;;8.92;100.00;97192.50;5049078;28;20208;-76
2020/12/13 02:00:06;;;;;;;3.90;2.80;;;;;;;9.21;100.00;97191.97;5049758;28;20205;-76
2020/12/13 02:02:38;;;;;;;4.73;3.00;;;;;;;9.24;100.00;97190.75;5048493;28;20208;-77
2020/12/13 02:05:05;;;;;;;4.73;2.93;;;;;;;8.68;100.00;97208.34;5050140;28;20189;-77
2020/12/13 02:07:32;;;;;;;5.17;2.93;;;;;;;8.98;100.00;97206.81;5050193;28;20225;-77
2020/12/13 02:09:59;;;;;;;4.70;2.60;;;;;;;8.75;100.00;97209.13;5050017;28;20306;-77
2020/12/13 02:12:27;;;;;;;3.50;2.53;;;;;;;9.11;100.00;97204.91;5049892;28;20202;-77
2020/12/13 02:14:54;;;;;;;3.73;2.53;;;;;;;9.07;100.00;97208.19;5047145;28;20198;-76
2020/12/13 02:17:21;;;;;;;5.90;2.67;;;;;;;9.25;100.00;97211.81;5050229;28;20206;-78
2020/12/13 02:19:48;;;;;;;4.80;2.87;;;;;;;9.19;100.00;97209.19;5050271;28;20202;-78
2020/12/13 02:22:16;;;;;;;4.30;2.73;;;;;;;9.28;100.00;97216.72;5054403;28;20694;-78
2020/12/13 02:24:42;;;;;;;3.93;2.33;;;;;;;9.35;100.00;97214.84;5056479;28;20201;-78
2020/12/13 02:27:10;;;;;;;3.13;2.00;;;;;;;9.38;100.00;97216.28;5053853;28;20666;-79
2020/12/13 02:29:36;;;;;;;3.60;2.33;;;;;;;9.32;100.00;97220.59;5051814;28;20757;-78
2020/12/13 02:32:05;;;;;;;5.20;2.77;;;;;;;9.41;100.00;97221.97;5052409;28;20222;-77
2020/12/13 02:34:31;;;;;;;4.47;2.40;;;;;;;9.28;100.00;97226.56;5053182;28;20228;-77
2020/12/13 02:36:58;;;;;;;4.60;2.53;;;;;;;9.52;100.00;97223.97;5053982;28;20198;-77
2020/12/13 02:39:26;;;;;;;4.87;2.50;;;;;;;9.45;100.00;97231.19;5052911;28;20194;-77
2020/12/13 02:42:00;;;;;;;3.97;2.27;;;;;;;9.58;100.00;97230.28;5051931;28;20217;-77
2020/12/13 02:44:27;;;;;;;3.77;2.63;;;;;;;9.49;100.00;97237.69;5050646;28;20299;-77
2020/12/13 02:46:54;;;;;;;5.67;2.30;;;;;;;9.50;100.00;97234.03;5049600;28;20654;-78
2020/12/13 02:49:21;;;;;;;3.13;2.17;;;;;;;9.41;100.00;97235.31;5053563;28;20230;-79
2020/12/13 02:51:48;;;;;;;2.87;1.83;;;;;;;9.61;100.00;97240.50;5053287;28;20229;-78
2020/12/13 02:54:15;;;;;;;3.63;2.10;;;;;;;9.44;100.00;97237.53;5054516;28;20580;-78
2020/12/13 02:56:43;;;;;;;4.03;2.10;;;;;;;9.61;100.00;97245.84;5053040;28;20205;-76
2020/12/13 02:59:09;;;;;;;2.60;2.00;;;;;;;9.38;100.00;97251.69;5053452;28;20202;-76
2020/12/13 03:01:36;;;;;;;2.90;2.20;;;;;;;9.52;100.00;97247.94;5053339;28;20584;-77
2020/12/13 03:04:03;;;;;;;3.93;2.20;;;;;;;9.38;100.00;97242.91;5053830;28;20208;-76
2020/12/13 03:06:30;;;;;;;2.97;2.13;;;;;;;9.55;100.00;97247.50;5053129;28;20808;-78
2020/12/13 03:08:57;;;;;;;4.67;2.23;;;;;;;9.62;100.00;97247.47;5051091;28;20201;-78
2020/12/13 03:11:24;;;;;;;3.67;2.20;;;;;;;9.55;100.00;97254.69;5052781;28;20218;-78
2020/12/13 03:13:52;;;;;;;3.43;2.27;;;;;;;9.37;100.00;97254.56;5052738;28;20221;-77
2020/12/13 03:16:19;;;;;;;4.13;2.40;;;;;;;9.36;100.00;97256.41;5047816;28;20194;-79
2020/12/13 03:18:46;;;;;;;3.80;2.07;;;;;;;9.37;100.00;97250.06;5038395;28;20202;-77
2020/12/13 03:21:13;;;;;;;3.57;2.40;;;;;;;9.52;100.00;97253.28;5048871;28;20221;-77
2020/12/13 03:23:39;;;;;;;3.73;2.23;;;;;;;9.50;100.00;97260.66;5046463;28;20225;-77
2020/12/13 03:26:06;;;;;;;2.90;2.03;;;;;;;9.46;100.00;97254.13;5046714;28;20236;-77
2020/12/13 03:28:33;;;;;;;3.33;2.23;;;;;;;9.29;100.00;97263.59;5051362;28;20210;-78
2020/12/13 03:31:01;;;;;;;3.50;2.10;;;;;;;9.40;100.00;97268.28;5049257;28;20229;-77
2020/12/13 03:33:28;;;;;;;3.23;2.20;;;;;;;9.40;100.00;97270.13;5047632;28;20213;-78
2020/12/13 03:35:54;;;;;;;4.87;2.20;;;;;;;9.39;100.00;97271.97;5052130;28;20210;-77
2020/12/13 03:38:21;;;;;;;3.03;2.00;;;;;;;9.29;100.00;97273.44;5050353;28;20202;-77
2020/12/13 03:40:48;;;;;;;4.73;2.23;;;;;;;9.24;100.00;97278.59;5049689;28;20218;-77
2020/12/13 03:43:15;;;;;;;3.37;2.20;;;;;;;9.27;100.00;97278.16;5042814;28;20227;-78
2020/12/13 03:45:42;;;;;;;3.50;2.20;;;;;;;9.16;100.00;97289.44;5045742;28;20293;-76
2020/12/13 03:48:09;;;;;;;3.17;2.27;;;;;;;9.25;100.00;97288.19;5046750;28;20194;-77
2020/12/13 03:50:39;;;;;;;3.00;2.20;;;;;;;9.22;100.00;97288.59;5050988;28;20221;-77
2020/12/13 03:53:07;;;;;;;3.47;1.73;;;;;;;9.27;100.00;97286.97;5045731;28;20208;-77
2020/12/13 03:55:34;;;;;;;4.17;2.40;;;;;;;9.30;100.00;97294.53;5042875;28;20658;-77
2020/12/13 03:58:00;;;;;;;3.10;2.10;;;;;;;9.22;100.00;97300.09;5045854;28;20206;-77
2020/12/13 04:00:27;;;;;;;2.70;1.83;;;;;;;9.21;100.00;97306.44;5051605;28;20221;-78
2020/12/13 04:02:55;;;;;;;2.43;1.90;;;;;;;9.19;100.00;97305.81;5054261;28;20213;-77
2020/12/13 04:05:24;;;;;;;2.90;2.00;;;;;;;9.21;100.00;97314.44;5056878;28;20720;-78
2020/12/13 04:07:51;;;;;;;3.93;2.33;;;;;;;9.13;100.00;97314.63;5048101;28;20198;-78
2020/12/13 04:10:19;;;;;;;3.53;2.10;;;;;;;9.06;100.00;97316.50;5054588;28;20229;-77
2020/12/13 04:12:46;;;;;;;2.60;1.70;;;;;;;9.23;100.00;97324.88;5053815;28;20213;-75
2020/12/13 04:15:13;;;;;;;2.30;1.53;;;;;;;9.15;100.00;97331.25;5038616;28;20202;-76
2020/12/13 04:17:40;;;;;;;2.93;2.10;;;;;;;9.27;100.00;97321.56;5054239;28;20198;-78
2020/12/13 04:20:07;;;;;;;2.90;1.83;;;;;;;9.30;100.00;97329.16;5041733;28;20213;-78
2020/12/13 04:22:35;;;;;;;2.10;1.90;;;;;;;9.30;100.00;97331.81;5050150;28;20210;-76
2020/12/13 04:25:02;;;;;;;3.03;2.07;;;;;;;9.38;100.00;97336.09;5056833;28;20199;-77
2020/12/13 04:27:29;;;;;;;3.17;2.10;;;;;;;9.48;100.00;97336.47;5057495;28;20311;-77
2020/12/13 04:29:56;;;;;;;2.90;2.03;;;;;;;9.43;100.00;97338.94;5052330;28;20241;-79
2020/12/13 04:32:23;;;;;;;3.13;1.90;;;;;;;9.52;100.00;97343.00;5048453;28;20535;-76
2020/12/13 04:34:50;;;;;;;3.37;2.13;;;;;;;9.24;100.00;97345.94;5045573;28;20225;-76
2020/12/13 04:37:16;;;;;;;3.67;2.00;;;;;;;9.23;100.00;97346.16;5049637;28;20198;-76
2020/12/13 04:39:44;;;;;;;3.27;2.10;;;;;;;9.12;100.00;97342.28;5044364;28;20213;-76
2020/12/13 04:42:11;;;;;;;4.13;2.33;;;;;;;9.20;100.00;97349.25;5044423;28;20221;-76
2020/12/13 04:44:38;;;;;;;2.80;1.73;;;;;;;9.09;100.00;97348.00;5053361;28;20554;-76
2020/12/13 04:47:07;;;;;;;2.30;1.73;;;;;;;9.17;100.00;97353.13;5048627;28;20206;-78
2020/12/13 04:49:35;;;;;;;2.50;1.70;;;;;;;9.30;100.00;97358.44;5044845;28;20232;-76
2020/12/13 04:52:03;;;;;;;2.30;1.80;;;;;;;9.38;100.00;97357.41;5044992;28;20222;-76
2020/12/13 04:54:31;;;;;;;3.90;1.60;;;;;;;9.40;100.00;97356.16;5048354;28;20206;-76
2020/12/13 04:56:59;;;;;;;2.03;1.60;;;;;;;9.30;100.00;97361.09;5049547;28;20224;-78
2020/12/13 04:59:26;;;;;;;2.80;1.80;;;;;;;9.37;100.00;97361.88;5049384;28;20530;-78
2020/12/13 05:01:53;;;;;;;2.10;1.43;;;;;;;9.36;100.00;97354.94;5044816;28;20228;-78
2020/12/13 05:04:20;;;;;;;2.43;1.57;;;;;;;9.44;100.00;97359.22;5045358;28;20217;-78
2020/12/13 05:06:49;;;;;;;3.20;1.47;;;;;;;9.39;100.00;97359.81;5049069;28;20198;-77
2020/12/13 05:09:16;;;;;;;4.07;1.83;;;;;;;9.39;100.00;97357.16;5052855;28;20209;-78
2020/12/13 05:11:44;;;;;;;3.83;1.80;;;;;;;9.25;100.00;97366.22;5050603;28;20214;-78
2020/12/13 05:14:12;;;;;;;2.90;1.90;;;;;;;9.33;100.00;97376.66;5050886;28;20221;-78
2020/12/13 05:16:39;;;;;;;2.47;1.73;;;;;;;9.41;100.00;97371.09;5051356;28;20198;-78
2020/12/13 05:19:06;;;;;;;3.17;1.90;;;;;;;9.27;100.00;97377.47;5050266;28;20658;-77
2020/12/13 05:21:33;;;;;;;5.57;1.90;;;;;;;9.36;100.00;97378.06;5050328;28;20228;-77
2020/12/13 05:24:03;;;;;;;1.80;1.60;;;;;;;9.36;100.00;97381.56;5050856;28;20548;-77
2020/12/13 05:26:30;;;;;;;2.47;1.77;;;;;;;9.49;100.00;97394.03;5047587;28;20292;-77
2020/12/13 05:29:00;;;;;;;2.37;1.70;;;;;;;9.55;100.00;97383.34;5050578;28;20217;-77
2020/12/13 05:31:29;;;;;;;3.47;1.80;;;;;;;9.56;100.00;97384.16;5050355;28;20226;-77
2020/12/13 05:34:01;;;;;;;3.80;1.63;;;;;;;9.52;100.00;97393.59;5047371;28;20565;-78
2020/12/13 05:36:29;;;;;;;2.70;1.80;;;;;;;9.31;100.00;97389.34;5044395;28;20226;-77
2020/12/13 05:38:58;;;;;;;4.00;1.60;;;;;;;9.40;100.00;97398.78;5046477;28;20217;-78
2020/12/13 05:41:29;;;;;;;2.30;1.50;;;;;;;9.31;100.00;97400.00;5040945;28;20237;-77
2020/12/13 05:44:03;;;;;;;2.40;1.60;;;;;;;9.45;100.00;97409.63;5044861;28;20201;-78
2020/12/13 05:52:02;;;;;;;2.07;1.20;;;;;;;9.63;100.00;97411.59;5023095;28;20223;-77
2020/12/13 05:54:29;;;;;;;1.23;1.13;;;;;;;9.44;100.00;97417.81;5050954;28;20202;-77
2020/12/13 05:56:58;;;;;;;2.87;1.20;;;;;;;9.44;100.00;97418.59;5050014;28;20663;-77
2020/12/13 05:59:25;;;;;;;1.73;1.27;;;;;;;9.40;100.00;97421.91;5044624;28;20197;-76
2020/12/13 06:01:55;;;;;;;1.33;1.17;;;;;;;9.53;100.00;97425.34;5048252;28;20224;-77
2020/12/13 06:04:27;;;;;;;2.47;1.27;;;;;;;9.50;100.00;97424.97;5038582;28;20232;-77
2020/12/13 06:06:55;;;;;;;1.93;1.47;;;;;;;9.59;100.00;97427.19;5038278;28;20206;-77
2020/12/13 06:09:32;;;;;;;1.87;1.30;;;;;;;9.67;100.00;97432.28;5042269;28;20248;-78
2020/12/13 06:12:02;;;;;;;2.03;1.30;;;;;;;9.78;100.00;97436.13;5040651;28;20230;-78
2020/12/13 06:14:29;;;;;;;2.17;1.40;;;;;;;9.64;100.00;97438.03;5043136;28;20256;-77
2020/12/13 06:16:58;;;;;;;2.17;1.33;;;;;;;9.64;100.00;97439.88;5051344;28;20217;-74
2020/12/13 06:19:25;;;;;;;1.83;1.10;;;;;;;9.76;100.00;97439.03;5043430;28;20288;-76
2020/12/13 06:21:55;;;;;;;1.10;0.90;;;;;;;9.75;100.00;97450.69;5040987;28;20230;-74
2020/12/13 06:24:23;;;;;;;2.97;0.97;;;;;;;9.50;100.00;97441.78;5040912;28;20201;-75
2020/12/13 06:26:50;;;;;;;1.20;1.10;;;;;;;9.71;100.00;97446.00;5045156;28;20228;-77
2020/12/13 06:29:20;;;;;;;1.70;1.30;;;;;;;9.76;100.00;97447.03;5043084;28;20257;-77
2020/12/13 06:31:47;;;;;;;2.97;1.67;;;;;;;9.75;100.00;97450.69;5046627;28;20226;-77
2020/12/13 06:34:15;;;;;;;1.50;1.20;;;;;;;9.86;100.00;97452.75;5039142;28;20584;-77
2020/12/13 06:36:42;;;;;;;1.80;1.20;;;;;;;9.82;100.00;97450.69;5043565;28;20209;-77
2020/12/13 06:39:12;;;;;;;1.13;1.03;;;;;;;9.56;100.00;97458.75;5039596;28;20198;-77
2020/12/13 06:41:41;;;;;;;2.00;1.10;;;;;;;9.59;100.00;97464.47;5050870;28;20702;-77
2020/12/13 06:44:09;;;;;;;1.90;1.17;;;;;;;9.64;100.00;97458.53;5039882;28;20293;-75
2020/12/13 06:46:41;;;;;;;2.60;1.27;;;;;;;9.71;100.00;97462.81;5051901;28;20199;-77
2020/12/13 06:49:08;;;;;;;1.47;1.10;;;;;;;9.78;100.00;97473.44;5040909;28;20198;-77
2020/12/13 06:51:37;;;;;;;1.70;1.20;;;;;;;9.58;100.00;97486.81;5041552;28;20221;-79
2020/12/13 06:54:06;;;;;;;1.63;1.00;;;;;;;9.52;100.00;97481.50;5050561;28;20204;-74
2020/12/13 06:56:33;;;;;;;2.23;1.20;;;;;;;9.68;100.00;97489.88;5048131;28;20227;-75
2020/12/13 06:59:01;;;;;;;1.10;1.00;;;;;;;9.59;100.00;97484.97;5042774;28;20206;-74
2020/12/13 07:01:32;;;;;;;1.90;1.30;;;;;;;9.82;100.00;97496.00;5050062;28;20222;-76
2020/12/13 07:04:19;;;;;;;2.33;1.00;;;;;;;9.50;100.00;97502.19;5040276;28;20685;-76
2020/12/13 07:06:47;;;;;;;3.23;1.30;;;;;;;9.44;100.00;97497.69;5048047;28;20203;-76
2020/12/13 07:09:14;;;;;;;4.03;1.33;;;;;;;9.66;100.00;97504.44;5052228;28;20576;-74
2020/12/13 07:11:42;;;;;;;1.83;1.10;;;;;;;9.39;100.00;97511.63;5045587;28;20230;-76
2020/12/13 07:14:12;;;;;;;2.10;1.17;;;;;;;9.59;100.00;97522.28;5054061;28;20242;-77
2020/12/13 07:16:43;;;;;;;2.13;1.10;;;;;;;9.62;100.00;97517.34;5056954;28;20321;-78
2020/12/13 07:19:12;;;;;;;2.20;1.47;;;;;;;9.69;100.00;97517.34;5048534;28;20270;-79
2020/12/13 07:21:40;;;;;;;2.53;1.43;;;;;;;9.63;100.00;97526.97;5057313;28;20241;-79
2020/12/13 07:24:08;;;;;;;1.47;0.90;;;;;;;9.68;100.00;97527.16;5054617;28;20198;-78
2020/12/13 07:26:36;;;;;;;1.27;1.00;;;;;;;9.75;100.00;97532.50;5057929;28;20202;-78
2020/12/13 07:29:04;;;;;;;1.83;0.90;;;;;;;9.68;100.00;97537.00;5056815;28;20206;-78
2020/12/13 07:31:35;;;;;;;0.73;0.70;;;;;;;9.69;100.00;97539.47;5051110;28;20230;-79
2020/12/13 07:34:03;;;;;;;1.10;1.00;;;;;;;9.62;100.00;97545.81;5051556;28;20202;-76
2020/12/13 07:36:30;;;;;;;3.33;1.00;;;;;;;9.39;100.00;97548.91;5054850;28;20189;-78
2020/12/13 07:38:57;;;;;;;1.20;0.90;;;;;;;9.46;100.00;97555.06;5043695;28;20278;-78
2020/12/13 07:41:26;;;;;;;2.60;1.17;;;;;;;9.54;100.00;97562.03;5057359;28;20229;-76
2020/12/13 07:43:58;;;;;;;0.70;0.70;;;;;;;9.43;100.00;97562.66;5054323;28;20206;-78
2020/12/13 07:46:25;;;;;;;1.43;1.00;;;;;;;9.49;100.00;97562.63;5057053;28;20194;-77
2020/12/13 07:49:06;;;;;;;1.57;0.80;;;;;;;9.41;100.00;97564.69;5052658;28;20203;-77
2020/12/13 07:51:34;;;;;;;1.43;1.10;;;;;;;9.53;100.00;97576.34;5042867;28;20233;-77
2020/12/13 07:54:15;;;;;;;1.20;1.00;;;;;;;9.29;100.00;97579.63;5050080;28;20224;-74
2020/12/13 07:56:44;;;;;;;1.13;0.90;;;;;;;9.24;100.00;97577.56;5051734;28;20194;-75
2020/12/13 07:59:13;;;;;;;1.10;0.90;;;;;;;9.34;100.00;97582.50;5041347;28;20208;-77
2020/12/13 08:01:40;;;;;;;2.00;1.00;;;;;;;9.42;100.00;97583.13;5049874;28;20241;-75
2020/12/13 08:04:07;;;;;;;1.00;0.87;;;;;;;9.34;100.00;97585.97;5046961;28;20199;-75
2020/12/13 08:06:34;;;;;;;1.23;1.00;;;;;;;9.19;100.00;97590.66;5049544;28;20652;-74
2020/12/13 08:09:06;;;;;;;3.73;0.77;;;;;;;9.21;100.00;97593.13;5042356;28;20738;-75
2020/12/13 08:11:33;;;;;;;1.13;0.80;;;;;;;9.23;100.00;97601.75;5048505;28;20226;-76
2020/12/13 08:14:01;;;;;;;1.03;0.70;;;;;;;9.03;100.00;97606.19;5050450;28;20206;-74
2020/12/13 08:16:28;;;;;;;1.13;0.93;;;;;;;9.20;100.00;97602.13;5053648;28;20573;-76
2020/12/13 08:18:59;;;;;;;0.97;0.70;;;;;;;9.15;100.00;97601.91;5054251;28;20210;-74
2020/12/13 08:21:32;;;;;;;1.13;0.73;;;;;;;9.24;100.00;97611.38;5053062;28;20230;-77
2020/12/13 08:24:00;;;;;;;0.90;0.80;;;;;;;9.47;100.00;97607.28;5063215;28;20218;-75
2020/12/13 08:26:28;;;;;;;1.50;0.90;;;;;;;9.28;100.00;97604.63;5054008;28;20647;-77
2020/12/13 08:28:55;;;;;;;2.87;1.07;;;;;;;9.31;100.00;97612.19;5038755;28;20285;-75
2020/12/13 08:31:25;;;;;;;2.30;1.10;;;;;;;9.32;100.00;97612.00;5034887;28;20222;-75
2020/12/13 08:34:01;;;;;;;2.40;1.23;;;;;;;9.44;100.00;97618.34;5054438;28;20190;-76
2020/12/13 08:36:28;;;;;;;1.97;1.17;;;;;;;9.65;100.00;97614.69;5046332;28;20297;-75
2020/12/13 08:39:09;;;;;;;2.40;1.00;;;;;;;9.39;100.00;97618.13;5051283;28;20277;-75
2020/12/13 08:41:36;;;;;;;1.07;0.80;;;;;;;9.28;100.00;97623.25;5047316;28;20701;-77
2020/12/13 08:44:03;;;;;;;2.40;1.03;;;;;;;9.70;100.00;97618.34;5042082;28;20604;-77
2020/12/13 08:46:34;;;;;;;3.00;1.70;;;;;;;9.73;100.00;97617.97;5044109;28;20209;-78
2020/12/13 08:49:01;;;;;;;1.70;1.10;;;;;;;9.89;100.00;97619.41;5052920;28;20202;-79
2020/12/13 08:51:29;;;;;;;1.73;1.37;;;;;;;9.39;100.00;97623.47;5053579;28;20221;-74
2020/12/13 08:54:01;;;;;;;2.20;1.53;;;;;;;9.88;100.00;97623.91;5057615;28;20209;-82
2020/12/13 08:56:36;;;;;;;2.87;1.83;;;;;;;10.08;100.00;97624.75;5055730;28;20209;-78
2020/12/13 08:59:04;;;;;;;4.40;1.80;;;;;;;10.18;100.00;97635.81;5060544;28;20183;-74
2020/12/13 09:01:34;;;;;;;2.03;1.60;;;;;;;10.05;100.00;97632.34;5038827;28;20222;-74
2020/12/13 09:04:03;;;;;;;2.30;1.90;;;;;;;10.36;100.00;97635.97;5042643;28;20221;-76
2020/12/13 09:06:32;;;;;;;1.90;1.40;;;;;;;10.45;100.00;97642.72;5046020;28;20224;-77
2020/12/13 09:09:11;;;;;;;2.37;1.30;;;;;;;10.43;100.00;97651.97;5049034;28;20261;-78
2020/12/13 09:11:38;;;;;;;7.30;1.90;;;;;;;10.28;100.00;97665.53;5045270;28;20236;-73
2020/12/13 09:14:05;;;;;;;4.20;1.60;;;;;;;10.38;100.00;97662.44;5034300;28;20202;-76
2020/12/13 09:16:34;;;;;;;5.67;2.10;;;;;;;10.31;100.00;97670.44;5046448;28;20202;-77
2020/12/13 09:19:06;;;;;;;2.53;1.83;;;;;;;9.90;100.00;97675.16;5038600;28;20205;-74
2020/12/13 09:21:46;;;;;;;4.33;2.20;;;;;;;10.14;100.00;97674.56;5045847;28;20223;-78
2020/12/13 09:24:14;;;;;;;2.60;1.73;;;;;;;9.86;100.00;97687.25;5050520;28;20186;-74
2020/12/13 09:26:41;;;;;;;2.60;1.80;;;;;;;9.98;100.00;97679.47;5044098;28;20230;-77
2020/12/13 09:29:07;;;;;;;3.00;2.20;;;;;;;10.33;100.00;97680.91;5046808;28;20674;-79
2020/12/13 09:31:35;;;;;;;4.13;2.40;;;;;;;10.18;100.00;97687.50;5048138;28;20230;-76
2020/12/13 09:34:02;;;;;;;4.40;2.43;;;;;;;10.50;100.00;97701.59;5032280;28;20205;-77
2020/12/13 09:36:29;;;;;;;4.93;2.10;;;;;;;10.49;100.00;97702.63;5040215;28;20205;-76
2020/12/13 09:38:55;;;;;;;5.53;2.20;;;;;;;10.68;100.00;97706.28;5050422;28;20557;-72
2020/12/13 09:41:23;;;;;;;4.53;2.20;;;;;;;10.76;100.00;97706.88;5045499;28;20226;-72
2020/12/13 09:43:50;;;;;;;2.40;1.80;;;;;;;10.98;100.00;97708.28;5049779;28;20214;-71
2020/12/13 09:46:20;;;;;;;4.10;2.07;;;;;;;10.96;100.00;97704.97;5047535;28;20207;-73
2020/12/13 09:48:48;;;;;;;3.17;2.00;;;;;;;10.92;100.00;97710.97;5043601;28;20234;-72
2020/12/13 09:51:19;;;;;;;2.87;1.50;;;;;;;10.83;100.00;97704.22;5050065;28;20231;-73
2020/12/13 09:53:46;;;;;;;3.93;1.70;;;;;;;10.96;100.00;97706.84;5048953;28;20202;-73
2020/12/13 09:56:16;;;;;;;2.90;1.90;;;;;;;11.07;100.00;97703.53;5042746;28;20215;-72
2020/12/13 09:58:43;;;;;;;4.00;1.90;;;;;;;11.10;100.00;97705.75;5052496;28;20276;-73
2020/12/13 10:01:10;;;;;;;1.77;1.43;;;;;;;10.85;100.00;97702.16;5043132;28;20216;-73
2020/12/13 10:03:39;;;;;;;2.70;1.43;;;;;;;11.36;100.00;97703.78;5043703;28;20294;-73
2020/12/13 10:09:06;;;;;;;2.17;1.80;;;;;;;11.34;100.00;97711.22;5045906;28;20361;-73
2020/12/13 10:11:35;;;;;;;2.27;1.63;;;;;;;11.37;100.00;97718.78;5044244;28;20316;-72
2020/12/13 10:14:02;;;;;;;3.73;1.90;;;;;;;11.35;100.00;97714.69;5041825;28;20279;-72
2020/12/13 10:16:29;;;;;;;3.73;1.70;;;;;;;10.94;100.00;97711.56;5042510;28;20204;-72
2020/12/13 10:18:56;;;;;;;2.50;1.60;;;;;;;11.03;100.00;97710.31;5046579;28;20204;-72
2020/12/13 10:21:26;;;;;;;2.63;1.97;;;;;;;11.21;100.00;97721.94;5042593;28;20225;-72
2020/12/13 10:23:53;;;;;;;2.00;1.30;;;;;;;11.07;100.00;97727.56;5046793;28;20661;-71
2020/12/13 10:26:23;;;;;;;1.30;1.10;;;;;;;11.14;100.00;97715.81;5047582;28;20196;-72
2020/12/13 10:28:50;;;;;;;1.80;1.20;;;;;;;11.02;100.00;97720.16;5048778;28;20774;-72
2020/12/13 10:31:17;;;;;;;2.83;1.13;;;;;;;10.94;100.00;97723.06;5044881;28;20522;-72
2020/12/13 10:33:44;;;;;;;2.80;1.40;;;;;;;10.96;100.00;97718.34;5047646;28;20216;-73
2020/12/13 10:36:12;;;;;;;2.33;0.93;;;;;;;10.25;100.00;97721.94;5046463;28;20204;-74
2020/12/13 10:38:41;;;;;;;2.50;1.20;;;;;;;10.85;100.00;97715.50;5039840;28;20204;-73
2020/12/13 10:41:08;;;;;;;1.83;1.10;;;;;;;11.03;100.00;97721.00;5047216;28;20216;-76
2020/12/13 10:43:36;;;;;;;1.57;1.00;;;;;;;11.21;100.00;97726.47;5056809;28;20214;-77
2020/12/13 10:46:05;;;;;;;1.47;1.10;;;;;;;11.37;100.00;97718.78;5044984;28;20222;-83
2020/12/13 10:48:32;;;;;;;2.50;1.20;;;;;;;11.34;100.00;97716.56;5057110;28;20234;-85
2020/12/13 10:50:59;;;;;;;2.23;1.00;;;;;;;11.21;100.00;97718.47;5055373;28;20242;-83
2020/12/13 10:53:26;;;;;;;1.83;1.00;;;;;;;10.87;100.00;97713.44;5055633;28;20235;-77
2020/12/13 10:55:54;;;;;;;1.10;0.90;;;;;;;10.79;100.00;97719.81;5058363;28;20199;-86
2020/12/13 10:58:21;;;;;;;2.10;0.90;;;;;;;10.50;100.00;97720.28;5050932;28;20210;-82
2020/12/13 11:00:48;;;;;;;1.37;0.97;;;;;;;10.05;100.00;97726.44;5052085;28;20311;-80
2020/12/13 11:03:15;;;;;;;1.37;0.87;;;;;;;10.55;100.00;97720.47;5052393;28;20579;-83
2020/12/13 11:05:42;;;;;;;1.77;0.90;;;;;;;10.81;100.00;97723.09;5051050;28;20636;-82
2020/12/13 11:08:09;;;;;;;1.10;0.80;;;;;;;11.19;100.00;97717.84;5061666;28;20222;-82
2020/12/13 11:10:36;;;;;;;3.93;1.07;;;;;;;10.79;100.00;97722.50;5057404;28;20239;-79
2020/12/13 11:13:04;;;;;;;1.87;0.93;;;;;;;11.24;100.00;97729.53;5052145;28;20293;-78
2020/12/13 11:15:31;;;;;;;2.37;1.10;;;;;;;11.14;100.00;97729.16;5052776;28;20196;-79
2020/12/13 11:17:58;;;;;;;3.10;1.10;;;;;;;11.35;100.00;97730.72;5042635;28;21312;-77
2020/12/13 11:20:24;;;;;;;1.53;1.00;;;;;;;11.03;100.00;97724.50;5052095;28;20235;-77
2020/12/13 11:22:51;;;;;;;3.73;1.03;;;;;;;10.77;100.00;97729.91;5052828;28;20210;-78
2020/12/13 11:25:18;;;;;;;1.40;0.90;;;;;;;10.64;100.00;97740.59;5057199;28;20201;-77
2020/12/13 11:27:45;;;;;;;4.07;1.30;;;;;;;10.81;100.00;97733.78;5053800;28;20690;-73
2020/12/13 11:30:13;;;;;;;3.00;1.33;;;;;;;10.79;100.00;97725.16;5048715;28;20205;-72
2020/12/13 11:32:43;;;;;;;2.87;1.50;;;;;;;10.96;100.00;97729.00;5048213;28;20220;-72
2020/12/13 11:35:10;;;;;;;1.80;1.20;;;;;;;10.92;100.00;97729.66;5040409;28;20186;-75
2020/12/13 11:37:37;;;;;;;3.87;1.40;;;;;;;10.96;100.00;97729.00;5049216;28;20210;-79
2020/12/13 11:40:04;;;;;;;1.43;0.97;;;;;;;10.84;100.00;97733.38;5051500;28;20222;-77
2020/12/13 11:42:31;;;;;;;2.30;1.40;;;;;;;11.05;100.00;97735.78;5053795;28;20220;-77
2020/12/13 11:44:58;;;;;;;1.57;1.10;;;;;;;11.10;100.00;97730.63;5048336;28;20210;-77
2020/12/13 11:47:26;;;;;;;2.47;1.53;;;;;;;10.57;100.00;97723.78;5047753;28;20234;-77